Pagina principale
METAR-TAF:

METAR-TAF

Aeroporti :

Cairns, Australia

latitudine: 16-53S, longitudine: 145-45E, altezza: 3 m

Osservazione

Il bollettino è stato emesso 28 minuti fa, alle 16:30 UTC
Vento 13 kt da sud-est
Temperature 16°C
Umidità 72%
Pressione 1019 hPa
Visibilità 10 km o più
nessuna nube inferiore a 1500 m e nessun cumulonembo

METAR: YBCS 201630Z 14013KT CAVOK 16/11 Q1019 NOSIG

Ora: 02:58 (16:58 UTC)

Previsione

Il bollettino è stato emesso 6 ore e 4 minuti fa, alle 10:54 UTC
Previsione valida dal 20 alle 12 UTC al 21 alle 12 UTC
Vento 10 kt da sud
Visibilità 10 km o più
nessuna nube inferiore a 1500 m e nessun cumulonembo
A partire da 20 alle 2300 UTC
Vento 15 kt da sud-est
Visibilità 10 km o più
nessuna nube inferiore a 1500 m e nessun cumulonembo
A partire da 21 alle 0800 UTC
Vento 10 kt da sud
Visibilità 10 km o più
nessuna nube inferiore a 1500 m e nessun cumulonembo

TAF: YBCS 201054Z 2012/2112 17010KT CAVOK FM202300 13015KT CAVOK FM210800 17010KT CAVOK

Osservazioni e previsioni meteorologiche di più di 4000 aeroporti (messaggi METAR e TAF).

Le stazioni disponibili sono rappresentate dai dischi gialli e rossi sulla carta.

Puntare il mouse per vedere il nome della stazione.

Clicca sopra per visualizzare le osservazioni e previsioni meteorologiche.

Per cambiare la mappa : fare clic sui pulsanti verdi con una croce nera per ingrandire, il pulsante verde con un trattino per diminuire, o sulla freccia verde per le mappe adiacenti.


METAR-TAF: